Latest Weather Observations for Century Mine

IDQ60801

Issued at 3:05 pm EST Saturday 1 November 2014 (issued every 30 minutes, with the page automatically refreshed every 10 minutes)

About weather observations | Map of weather stations | Latest weather observations for QLD | Other Formats
Station Details ID: 029167 Name: CENTURY MINE Lat: -18.76 Lon: 138.71 Height: 126.8 m
Data from the previous 72 hours. | See also: Recent months at Century Mine
Date/Time
EST
Temp
°C
App
Temp
°C
Dew
Point
Rel
Hum
%
Delta-T
°C
Wind Press
QNH
hPa
Press
MSL
hPa
Rain
since 9 am
mm
Dir
 
Spd
km/h
Gust
km/h
Spd
kts
Gust
kts
01/03:00pm 39.8 35.6 8.3 15 18.3 NW 20 30 11 16 1008.2 1007.3 0.0
01/02:30pm 40.3 35.5 8.7 15 18.5 NNW 24 32 13 17 1008.6 1007.7 0.0
01/02:00pm 39.9 36.2 9.3 16 18.0 NNW 19 20 10 11 1009.2 1008.3 0.0
01/01:30pm 38.6 37.3 9.2 17 17.1 ENE 6 11 3 6 1010.0 1009.1 0.0
01/01:00pm 37.7 34.3 9.3 18 16.5 NW 17 24 9 13 1010.6 1009.7 0.0
01/12:30pm 37.9 34.8 10.3 19 16.3 NW 17 30 9 16 1011.4 1010.5 0.0
01/12:00pm 37.0 34.3 10.3 20 15.7 NNW 15 20 8 11 1012.2 1011.2 0.0
01/11:30am 36.8 33.3 10.9 21 15.4 NNW 20 26 11 14 1012.8 1011.8 0.0
01/11:00am 36.4 32.8 10.6 21 15.2 NNW 20 32 11 17 1013.0 1012.0 0.0
01/10:30am 35.2 32.1 10.3 22 14.5 NNW 17 24 9 13 1013.3 1012.3 0.0
01/10:00am 35.5 31.7 9.8 21 14.9 NNW 20 30 11 16 1013.8 1012.8 0.0
01/09:30am 34.2 30.7 10.1 23 14.0 N 19 30 10 16 1013.6 1012.7 0.0
01/09:00am 33.1 32.0 13.2 30 12.0 WNW 11 17 6 9 1012.8 1011.9 0.0
01/08:30am 32.8 31.6 13.9 31 11.5 NNW 13 17 7 9 1012.1 1011.2 0.0
01/08:00am 30.5 30.4 16.1 41 9.0 NNW 11 17 6 9 1011.3 1010.5 0.0
01/07:30am 27.9 29.6 18.0 55 6.3 NNW 6 9 3 5 1010.9 1010.1 0.0
01/07:00am 24.9 28.0 18.6 68 4.0 CALM 0 0 0 0 1010.6 1009.8 0.0
01/06:30am 22.9 25.3 16.9 69 3.7 CALM 0 0 0 0 1010.3 1009.5 0.0
01/06:00am 23.0 25.4 17.0 69 3.7 CALM 0 0 0 0 1009.9 1009.1 0.0
01/05:30am 23.4 25.7 16.7 66 4.1 CALM 0 0 0 0 1009.7 1008.9 0.0
01/05:00am 24.5 25.9 16.5 61 4.9 NW 4 9 2 5 1009.2 1008.4 0.0
01/04:30am 25.5 26.7 17.4 61 5.1 NNW 7 9 4 5 1009.0 1008.2 0.0
01/04:00am 25.9 27.1 17.3 59 5.4 NNW 7 9 4 5 1008.9 1008.1 0.0
01/03:30am 26.5 27.7 17.3 57 5.8 NNW 7 11 4 6 1008.7 1007.9 0.0
01/03:00am 26.9 27.7 17.4 56 6.0 NNW 9 11 5 6 1008.6 1007.8 0.0
01/02:30am 27.5 28.5 17.7 55 6.2 NNW 9 13 5 7 1008.6 1007.8 0.0
01/02:00am 28.0 28.4 18.1 55 6.3 N 13 15 7 8 1008.9 1008.1 0.0
01/01:30am 28.4 29.2 18.2 54 6.5 NNW 11 17 6 9 1009.1 1008.3 0.0
01/01:00am 29.0 29.3 17.8 50 7.2 NNW 13 17 7 9 1009.3 1008.5 0.0
01/12:30am 29.6 29.9 17.8 49 7.5 N 13 19 7 10 1009.6 1008.8 0.0
01/12:00am 30.1 28.9 17.5 46 8.0 N 20 26 11 14 1009.8 1009.0 0.0
 
Date/Time
EST
Temp
°C
App
Temp
°C
Dew
Point
Rel
Hum
%
Delta-T
°C
Wind Press
QNH
hPa
Press
MSL
hPa
Rain
since 9 am
mm
Dir
 
Spd
km/h
Gust
km/h
Spd
kts
Gust
kts
31/11:30pm 30.9 30.5 17.2 43 8.7 N 15 24 8 13 1010.0 1009.2 0.0
31/11:00pm 31.2 30.0 17.1 42 9.0 N 19 26 10 14 1010.1 1009.3 0.0
31/10:30pm 31.8 30.5 16.9 40 9.5 N 19 26 10 14 1010.1 1009.3 0.0
31/10:00pm 32.3 30.9 16.6 39 10.0 N 19 28 10 15 1009.8 1009.0 0.0
31/09:30pm 33.1 31.9 16.0 35 10.8 N 17 24 9 13 1009.4 1008.6 0.0
31/09:00pm 33.6 32.2 15.6 34 11.3 N 17 28 9 15 1009.0 1008.2 0.0
31/08:30pm 34.5 32.5 15.4 32 12.0 N 20 28 11 15 1008.7 1007.9 0.0
31/08:00pm 34.9 33.0 14.2 28 12.8 N 17 24 9 13 1008.3 1007.5 0.0
31/07:30pm 35.4 33.9 13.0 26 13.6 N 13 17 7 9 1007.9 1007.0 0.0
31/07:00pm 36.0 34.2 12.2 23 14.4 N 13 20 7 11 1007.6 1006.7 0.0
31/06:30pm 36.6 35.0 12.7 23 14.5 NNE 13 22 7 12 1007.4 1006.5 0.0
31/06:00pm 37.7 36.3 12.3 22 15.5 NNE 11 17 6 9 1007.2 1006.3 0.0
31/05:30pm 38.2 36.7 12.0 21 15.9 N 11 15 6 8 1007.1 1006.2 0.0
31/05:00pm 38.6 36.3 11.6 20 16.3 N 15 22 8 12 1007.0 1006.1 0.0
31/04:30pm 38.5 36.5 11.5 20 16.3 NNW 13 28 7 15 1007.1 1006.2 0.0
31/04:00pm 39.0 36.8 12.0 20 16.4 NNW 15 30 8 16 1007.3 1006.4 0.0
31/03:30pm 39.2 37.4 12.1 20 16.5 NNW 13 26 7 14 1007.5 1006.6 0.0
31/03:00pm 38.6 35.9 11.6 20 16.3 NNW 17 28 9 15 1007.8 1006.9 0.0
31/02:30pm 39.0 35.3 12.7 21 16.1 NNW 24 32 13 17 1008.2 1007.3 0.0
31/02:00pm 38.2 34.3 12.0 21 15.9 NNW 24 35 13 19 1008.6 1007.8 0.0
31/01:30pm 38.1 34.5 12.0 21 15.8 NW 22 30 12 16 1009.1 1008.3 0.0
31/01:00pm 37.7 35.0 13.0 23 15.2 NNW 19 32 10 17 1009.6 1008.8 0.0
31/12:30pm 37.7 34.2 12.3 22 15.4 N 22 35 12 19 1010.2 1009.4 0.0
31/12:00pm 37.7 34.6 12.3 22 15.4 N 20 43 11 23 1010.7 1009.9 0.0
31/11:30am 37.1 33.5 11.8 22 15.2 NNW 22 35 12 19 1011.1 1010.3 0.0
31/11:00am 36.7 33.4 11.5 22 15.1 N 20 30 11 16 1011.6 1010.8 0.0
31/10:30am 35.6 30.9 10.6 22 14.7 N 26 41 14 22 1011.9 1011.0 0.0
31/10:00am 35.2 30.0 8.9 20 15.1 N 26 41 14 22 1012.0 1011.1 0.0
31/09:30am 35.7 31.2 8.5 19 15.5 N 22 28 12 15 1011.5 1010.7 0.0
31/09:00am 34.6 32.1 9.8 22 14.4 NW 13 17 7 9 1011.3 1010.5 0.0
31/08:30am 32.6 31.8 11.7 28 12.3 WNW 7 13 4 7 1011.0 1010.2 0.0
31/08:00am 30.4 32.4 16.0 41 9.0 CALM 0 2 0 1 1010.8 1010.0 0.0
31/07:30am 27.2 29.1 16.8 53 6.5 N 2 6 1 3 1010.5 1009.7 0.0
31/07:00am 23.8 26.2 17.1 66 4.2 CALM 0 0 0 0 1010.3 1009.5 0.0
31/06:30am 21.0 22.7 15.3 70 3.4 CALM 0 0 0 0 1010.0 1009.2 0.0
31/06:00am 20.9 22.5 15.0 69 3.5 CALM 0 0 0 0 1009.6 1008.8 0.0
31/05:30am 21.1 22.7 15.0 68 3.6 CALM 0 0 0 0 1009.5 1008.7 0.0
31/05:00am 21.7 23.3 14.8 65 4.1 CALM 0 0 0 0 1009.3 1008.5 0.0
31/04:30am 22.0 23.7 15.1 65 4.1 CALM 0 0 0 0 1009.1 1008.3 0.0
31/04:00am 22.7 24.5 15.5 64 4.3 CALM 0 0 0 0 1009.0 1008.2 0.0
31/03:30am 23.2 24.9 15.3 61 4.8 CALM 0 0 0 0 1008.9 1008.1 0.0
31/03:00am 24.1 24.9 15.9 60 5.0 WSW 6 7 3 4 1009.1 1008.3 0.0
31/02:30am 24.5 26.4 15.7 58 5.4 CALM 0 0 0 0 1009.1 1008.3 0.0
31/02:00am 24.9 26.8 15.8 57 5.6 CALM 0 0 0 0 1009.2 1008.4 0.0
31/01:30am 25.5 27.3 15.5 54 6.1 CALM 0 0 0 0 1009.2 1008.4 0.0
31/01:00am 27.1 27.7 15.8 50 7.0 NNW 7 9 4 5 1009.4 1008.6 0.0
31/12:30am 28.5 29.2 16.1 47 7.7 NNW 7 11 4 6 1009.6 1008.8 0.0
31/12:00am 29.4 30.0 15.9 44 8.4 NNW 7 11 4 6 1009.8 1009.0 0.0
 
Date/Time
EST
Temp
°C
App
Temp
°C
Dew
Point
Rel
Hum
%
Delta-T
°C
Wind Press
QNH
hPa
Press
MSL
hPa
Rain
since 9 am
mm
Dir
 
Spd
km/h
Gust
km/h
Spd
kts
Gust
kts
30/11:30pm 30.5 29.6 15.8 41 9.2 NNW 15 22 8 12 1009.9 1009.1 0.0
30/11:00pm 30.9 31.0 16.5 42 9.1 NNW 11 17 6 9 1009.9 1009.1 0.0
30/10:30pm 32.0 32.4 16.3 39 9.9 N 9 19 5 10 1009.8 1009.0 0.0
30/10:00pm 32.1 31.1 14.7 35 10.7 N 13 19 7 10 1009.4 1008.6 0.0
30/09:30pm 33.0 32.4 14.6 33 11.4 N 11 15 6 8 1009.1 1008.3 0.0
30/09:00pm 33.8 32.1 15.7 33 11.4 N 19 24 10 13 1008.7 1007.9 0.0
30/08:30pm 33.9 33.5 18.0 39 10.3 N 17 30 9 16 1008.2 1007.3 0.0
30/08:00pm 34.7 33.6 17.4 35 11.2 N 19 30 10 16 1007.7 1006.8 0.0
30/07:30pm 33.4 31.6 3.3 15 15.6 N 2 6 1 3 1007.1 1006.2 0.0
30/07:00pm 36.0 33.2 3.3 13 17.3 NNE 7 9 4 5 1006.8 1005.9 0.0
30/06:30pm 38.2 35.1 3.8 12 18.5 NE 9 13 5 7 1006.6 1005.7 0.0
30/06:00pm 39.6 36.4 4.9 12 19.1 NE 11 17 6 9 1006.4 1005.5 0.0
30/05:30pm 39.8 37.6 5.1 12 19.2 NNW 6 13 3 7 1006.3 1005.4 0.0
30/05:00pm 41.0 38.1 4.7 11 20.1 N 9 19 5 10 1006.2 1005.3 0.0
30/04:30pm 41.0 37.3 4.7 11 20.0 WNW 13 19 7 10 1006.2 1005.3 0.0
30/04:00pm 40.7 38.7 4.5 11 19.9 ENE 4 13 2 7 1006.5 1005.6 0.0
30/03:30pm 40.8 37.8 5.8 12 19.6 NW 11 19 6 10 1006.8 1005.9 0.0
30/03:00pm 39.9 36.7 5.1 12 19.3 NE 11 19 6 10 1007.1 1006.2 0.0
30/02:30pm 41.1 38.5 6.0 12 19.8 SE 9 24 5 13 1007.4 1006.5 0.0
30/02:00pm 40.5 37.4 5.6 12 19.5 NE 11 19 6 10 1008.0 1007.1 0.0
30/01:30pm 40.1 37.6 6.4 13 19.0 SE 9 19 5 10 1008.4 1007.6 0.0
30/01:00pm 40.1 35.7 6.4 13 19.0 NE 19 26 10 14 1009.1 1008.3 0.0
30/12:30pm 40.9 36.9 8.1 14 19.0 NE 19 24 10 13 1009.7 1008.9 0.0
30/12:00pm 40.3 37.8 9.6 16 18.2 N 13 24 7 13 1010.1 1009.3 0.0
30/11:30am 39.1 36.0 8.7 16 17.6 NE 15 22 8 12 1010.7 1009.9 0.0
30/11:00am 38.9 35.9 7.6 15 17.9 NE 13 24 7 13 1011.1 1010.3 0.0
30/10:30am 38.1 34.6 7.0 15 17.5 NE 15 24 8 13 1011.6 1010.8 0.0
30/10:00am 37.7 33.7 6.6 15 17.4 ESE 17 24 9 13 1011.9 1011.0 0.0
30/09:30am 37.3 33.0 5.3 14 17.5 E 17 26 9 14 1012.0 1011.1 0.0
30/09:00am 35.0 33.4 10.1 22 14.5 ENE 9 15 5 8 1012.2 1011.3 0.0
30/08:30am 32.1 31.5 11.8 29 12.0 N 6 9 3 5 1012.1 1011.2 0.0
30/08:00am 29.7 29.6 12.2 34 10.3 N 4 7 2 4 1011.9 1011.0 0.0
30/07:30am 27.1 28.1 13.1 42 8.3 CALM 0 0 0 0 1011.6 1010.8 0.0
30/07:00am 23.9 25.2 14.0 54 5.8 CALM 0 2 0 1 1011.3 1010.5 0.0
30/06:30am 22.0 21.3 13.1 57 5.1 SW 9 11 5 6 1011.0 1010.2 0.0
30/06:00am 21.4 20.9 12.0 55 5.3 SSW 6 9 3 5 1010.8 1010.0 0.0
30/05:30am 22.2 21.6 13.5 57 5.1 SW 9 13 5 7 1010.5 1009.7 0.0
30/05:00am 21.2 20.6 11.8 55 5.3 S 6 7 3 4 1010.2 1009.4 0.0
30/04:30am 21.6 22.2 11.9 54 5.5 CALM 0 0 0 0 1010.1 1009.3 0.0
30/04:00am 22.0 22.6 12.0 53 5.7 CALM 0 0 0 0 1010.0 1009.2 0.0
30/03:30am 22.7 23.3 12.0 50 6.1 CALM 0 6 0 3 1010.0 1009.2 0.0
30/03:00am 23.6 24.2 12.0 48 6.6 CALM 0 0 0 0 1010.0 1009.2 0.0
30/02:30am 24.6 23.8 11.2 43 7.6 NNW 6 7 3 4 1010.1 1009.3 0.0
30/02:00am 25.6 26.0 12.4 43 7.7 NNW 2 7 1 4 1010.3 1009.5 0.0
30/01:30am 26.8 26.2 11.7 39 8.7 NW 6 7 3 4 1010.4 1009.6 0.0
30/01:00am 28.2 27.8 12.5 37 9.2 WNW 6 9 3 5 1010.7 1009.9 0.0
30/12:30am 28.7 28.4 12.6 37 9.5 WNW 6 9 3 5 1010.7 1009.9 0.0
30/12:00am 29.3 28.9 12.3 35 10.0 NNW 6 9 3 5 1010.9 1010.1 0.0
 
Date/Time
EST
Temp
°C
App
Temp
°C
Dew
Point
Rel
Hum
%
Delta-T
°C
Wind Press
QNH
hPa
Press
MSL
hPa
Rain
since 9 am
mm
Dir
 
Spd
km/h
Gust
km/h
Spd
kts
Gust
kts
29/11:30pm 30.1 29.6 12.1 33 10.6 NNW 6 9 3 5 1011.1 1010.3 0.0
29/11:00pm 31.8 31.3 12.6 31 11.5 NNW 7 15 4 8 1011.1 1010.3 0.0
29/10:30pm 32.6 31.6 13.3 31 11.7 NNW 11 19 6 10 1010.7 1009.9 0.0
29/10:00pm 33.2 31.6 12.8 29 12.3 N 13 17 7 9 1010.4 1009.6 0.0
29/09:30pm 33.7 32.3 12.1 27 12.9 N 11 17 6 9 1010.1 1009.3 0.0
29/09:00pm 34.0 32.5 10.6 24 13.7 N 9 15 5 8 1009.8 1009.0 0.0
29/08:30pm 32.1 30.5 2.2 15 15.1 CALM 0 0 0 0 1009.1 1008.3 0.0
29/08:00pm 32.6 31.0 2.6 15 15.3 CALM 0 0 0 0 1008.8 1008.0 0.0
29/07:30pm 34.3 31.5 1.9 13 16.5 NE 6 7 3 4 1008.6 1007.8 0.0
29/07:00pm 36.5 34.7 1.3 11 18.0 CALM 0 4 0 2 1008.2 1007.3 0.0
29/06:30pm 39.1 35.3 1.9 10 19.5 ENE 11 15 6 8 1007.9 1007.0 0.0
29/06:00pm 40.3 36.7 2.8 10 20.1 E 11 17 6 9 1007.7 1006.8 0.0
29/05:30pm 40.9 37.5 1.8 9 20.7 ESE 9 19 5 10 1007.5 1006.6 0.0
29/05:00pm 40.3 37.1 2.8 10 20.1 WSW 9 11 5 6 1007.7 1006.8 0.0
29/04:30pm 42.1 39.8 2.7 9 21.2 NNW 4 7 2 4 1007.7 1006.8 0.0
29/04:00pm 41.5 37.0 2.3 9 21.0 E 15 20 8 11 1007.8 1006.9 0.0
29/03:30pm 42.4 37.3 2.9 9 21.4 E 19 30 10 16 1008.2 1007.3 0.0

Other Formats:

Comma delimited format used in spreadsheet applications
http://www.bom.gov.au/fwo/IDQ60801/IDQ60801.94261.axf

JavaScript Object Notation format (JSON) in row-major order
http://www.bom.gov.au/fwo/IDQ60801/IDQ60801.94261.json